createdAt,value
2023-04-24T00:02:14.660Z,99749.72
2023-04-24T00:04:46.008Z,99726.66
2023-04-24T00:07:14.330Z,99755.59
2023-04-24T00:09:47.591Z,99755.31
2023-04-24T00:12:14.408Z,99746.63
2023-04-24T00:14:47.573Z,99755.03
2023-04-24T00:17:14.625Z,99758.38
2023-04-24T00:19:47.569Z,99761.88
2023-04-24T00:22:14.615Z,99747.88
2023-04-24T00:24:48.526Z,99759.63
2023-04-24T00:27:15.366Z,99758.09
2023-04-24T00:29:48.595Z,99764.25
2023-04-24T00:32:15.942Z,99757.13
2023-04-24T00:34:49.582Z,99763.97
2023-04-24T00:37:16.590Z,99762.84
2023-04-24T00:39:50.596Z,99746.19
2023-04-24T00:42:17.414Z,99743.53
2023-04-24T00:44:44.348Z,99750.09
2023-04-24T00:47:18.736Z,99750.41
2023-04-24T00:49:45.875Z,99760.88
2023-04-24T00:52:20.535Z,99757.53
2023-04-24T00:54:47.824Z,99751.34
2023-04-24T00:57:25.550Z,99752.19
2023-04-24T00:59:54.597Z,99752.75
2023-04-24T01:02:30.652Z,99752.59
2023-04-24T01:04:57.967Z,99758.31
2023-04-24T01:07:32.812Z,99755.13
2023-04-24T01:10:06.589Z,99760.13
2023-04-24T01:12:40.697Z,99756.63
2023-04-24T01:15:27.617Z,99767.28
2023-04-24T01:18:00.670Z,99766.31
2023-04-24T01:20:34.643Z,99767.41
2023-04-24T01:23:01.761Z,99766.06
2023-04-24T01:25:35.618Z,99761.75
2023-04-24T01:28:08.609Z,99765.81
2023-04-24T01:30:41.805Z,99764.69
2023-04-24T01:33:08.904Z,99763.59
2023-04-24T01:35:43.561Z,99771.13
2023-04-24T01:38:10.414Z,99770.56
2023-04-24T01:40:43.588Z,99770.00
2023-04-24T01:43:10.648Z,99763.03
2023-04-24T01:45:43.727Z,99772.66
2023-04-24T01:48:17.656Z,99757.84
2023-04-24T01:50:44.641Z,99769.91
2023-04-24T01:53:19.699Z,99756.59
2023-04-24T01:55:46.649Z,99752.53
2023-04-24T01:58:19.606Z,99757.44
2023-04-24T02:00:46.365Z,99759.81
2023-04-24T02:03:19.665Z,99762.75
2023-04-24T02:05:46.946Z,99755.88
2023-04-24T02:08:20.597Z,99764.28
2023-04-24T02:10:47.315Z,99758.44
2023-04-24T02:13:20.708Z,99756.59
2023-04-24T02:16:07.626Z,99760.22
2023-04-24T02:18:40.748Z,99755.88
2023-04-24T02:21:07.670Z,99759.53
2023-04-24T02:23:42.061Z,99759.69
2023-04-24T02:26:08.994Z,99762.88
2023-04-24T02:28:42.655Z,99759.69
2023-04-24T02:31:09.705Z,99760.53
2023-04-24T02:33:43.644Z,99761.75
2023-04-24T02:36:16.570Z,99762.47
2023-04-24T02:38:43.342Z,99748.47
2023-04-24T02:41:16.642Z,99762.75
2023-04-24T02:43:43.435Z,99754.22
2023-04-24T02:46:16.831Z,99765.00
2023-04-24T02:48:43.606Z,99760.91
2023-04-24T02:51:17.761Z,99762.72
2023-04-24T02:53:44.746Z,99766.53
2023-04-24T02:56:19.648Z,99769.44
2023-04-24T02:58:46.479Z,99766.09
2023-04-24T03:01:19.766Z,99763.84
2023-04-24T03:03:46.876Z,99762.03
2023-04-24T03:06:20.681Z,99764.13
2023-04-24T03:08:47.746Z,99773.91
2023-04-24T03:11:20.673Z,99779.22
2023-04-24T03:13:53.665Z,99770.69
2023-04-24T03:16:27.101Z,99761.06
2023-04-24T03:19:00.699Z,99767.47
2023-04-24T03:21:27.813Z,99774.47
2023-04-24T03:24:00.696Z,99753.50
2023-04-24T03:26:27.874Z,99766.91
2023-04-24T03:29:01.614Z,99768.03
2023-04-24T03:31:28.522Z,99782.44
2023-04-24T03:34:02.722Z,99781.72
2023-04-24T03:36:29.461Z,99777.50
2023-04-24T03:39:02.671Z,99766.88
2023-04-24T03:41:29.933Z,99770.53
2023-04-24T03:44:03.665Z,99773.19
2023-04-24T03:46:43.820Z,99759.88
2023-04-24T03:49:10.735Z,99774.28
2023-04-24T03:51:44.633Z,99774.13
2023-04-24T03:54:11.721Z,99784.47
2023-04-24T03:56:44.663Z,99778.06
2023-04-24T03:59:11.826Z,99773.84
2023-04-24T04:01:44.694Z,99777.38
2023-04-24T04:04:11.784Z,99788.69
2023-04-24T04:06:45.664Z,99796.66
2023-04-24T04:09:18.613Z,99787.13
2023-04-24T04:11:51.802Z,99799.19
2023-04-24T04:14:18.602Z,99793.16
2023-04-24T04:16:58.634Z,99796.66
2023-04-24T04:19:25.599Z,99791.34
2023-04-24T04:22:00.715Z,99796.66
2023-04-24T04:24:27.777Z,99799.31
2023-04-24T04:26:57.774Z,99799.31
2023-04-24T04:29:31.743Z,99810.50
2023-04-24T04:31:59.453Z,99813.16
2023-04-24T04:34:32.726Z,99813.16
2023-04-24T04:37:03.347Z,99822.94
2023-04-24T04:39:38.731Z,99808.00
2023-04-24T04:42:05.548Z,99829.81
2023-04-24T04:44:38.679Z,99825.59
2023-04-24T04:47:06.748Z,99824.91
2023-04-24T04:49:40.896Z,99820.84
2023-04-24T04:52:07.953Z,99831.47
2023-04-24T04:54:41.796Z,99824.59
2023-04-24T04:57:09.278Z,99843.34
2023-04-24T04:59:36.340Z,99834.94
2023-04-24T05:02:09.719Z,99837.59
2023-04-24T05:04:36.608Z,99843.34
2023-04-24T05:07:10.900Z,99854.81
2023-04-24T05:09:38.483Z,99846.94
2023-04-24T05:12:11.789Z,99858.41
2023-04-24T05:14:38.596Z,99858.28
2023-04-24T05:17:18.661Z,99852.53
2023-04-24T05:19:46.514Z,99860.94
2023-04-24T05:22:19.798Z,99857.84
2023-04-24T05:24:46.668Z,99850.16
2023-04-24T05:27:20.693Z,99856.31
2023-04-24T05:29:47.523Z,99856.88
2023-04-24T05:32:20.696Z,99855.91
2023-04-24T05:34:47.768Z,99869.63
2023-04-24T05:37:21.784Z,99873.97
2023-04-24T05:39:54.853Z,99875.50
2023-04-24T05:42:27.840Z,99879.72
2023-04-24T05:45:02.671Z,99871.75
2023-04-24T05:47:29.550Z,99875.94
2023-04-24T05:50:02.802Z,99871.59
2023-04-24T05:52:29.821Z,99880.72
2023-04-24T05:55:03.870Z,99865.06
2023-04-24T05:57:30.638Z,99875.28
2023-04-24T06:00:03.700Z,99874.84
2023-04-24T06:02:33.860Z,99877.22
2023-04-24T06:05:07.886Z,99887.84
2023-04-24T06:07:34.998Z,99882.81
2023-04-24T06:10:08.799Z,99882.94
2023-04-24T06:12:35.765Z,99885.16
2023-04-24T06:15:08.745Z,99886.97
2023-04-24T06:17:48.730Z,99883.75
2023-04-24T06:20:21.792Z,99891.44
2023-04-24T06:22:54.756Z,99884.31
2023-04-24T06:25:28.797Z,99896.75
2023-04-24T06:27:56.954Z,99885.28
2023-04-24T06:30:24.135Z,99895.09
2023-04-24T06:33:03.072Z,99891.84
2023-04-24T06:35:37.613Z,99905.72
2023-04-24T06:38:10.911Z,99887.50
2023-04-24T06:40:41.804Z,99891.41
2023-04-24T06:43:14.767Z,99906.94
2023-04-24T06:45:44.725Z,99901.06
2023-04-24T06:48:18.752Z,99890.84
2023-04-24T06:50:46.331Z,99899.06
2023-04-24T06:53:20.776Z,99904.50
2023-04-24T06:55:53.775Z,99909.94
2023-04-24T06:58:27.800Z,99908.34
2023-04-24T07:01:00.856Z,99916.31
2023-04-24T07:03:27.760Z,99910.56
2023-04-24T07:06:02.715Z,99904.66
2023-04-24T07:08:31.669Z,99912.38
2023-04-24T07:11:04.868Z,99915.03
2023-04-24T07:13:31.810Z,99918.53
2023-04-24T07:16:06.031Z,99917.69
2023-04-24T07:18:41.025Z,99921.31
2023-04-24T07:21:14.760Z,99910.63
2023-04-24T07:23:42.633Z,99927.72
2023-04-24T07:26:15.836Z,99918.66
2023-04-24T07:28:48.774Z,99925.63
2023-04-24T07:31:22.991Z,99930.13
2023-04-24T07:33:50.162Z,99932.78
2023-04-24T07:36:20.065Z,99928.44
2023-04-24T07:38:53.781Z,99929.69
2023-04-24T07:41:21.687Z,99943.66
2023-04-24T07:43:54.850Z,99943.66
2023-04-24T07:46:22.070Z,99942.13
2023-04-24T07:49:09.185Z,99965.16
2023-04-24T07:51:40.396Z,99959.00
2023-04-24T07:54:13.803Z,99964.31
2023-04-24T07:56:43.260Z,99962.63
2023-04-24T07:59:17.812Z,99967.09
2023-04-24T08:01:44.636Z,99958.53
2023-04-24T08:04:17.798Z,99975.06
2023-04-24T08:06:51.758Z,99973.53
2023-04-24T08:09:26.419Z,99981.34
2023-04-24T08:12:01.809Z,99984.84
2023-04-24T08:14:34.858Z,99987.25
2023-04-24T08:17:14.896Z,99992.28
2023-04-24T08:19:55.774Z,99990.34
2023-04-24T08:22:28.889Z,100001.56
2023-04-24T08:25:03.998Z,100008.53
2023-04-24T08:27:30.854Z,100003.94
2023-04-24T08:29:58.455Z,100011.91
2023-04-24T08:32:31.938Z,100014.22
2023-04-24T08:34:59.645Z,100012.16
2023-04-24T08:37:34.826Z,100020.44
2023-04-24T08:40:02.754Z,100026.31
2023-04-24T08:42:36.797Z,100024.66
2023-04-24T08:45:04.100Z,100028.47
2023-04-24T08:47:37.888Z,100023.88
2023-04-24T08:50:07.160Z,100026.53
2023-04-24T08:52:41.812Z,100024.69
2023-04-24T08:55:08.962Z,100028.13
2023-04-24T08:57:47.307Z,100040.78
2023-04-24T09:00:14.645Z,100046.09
2023-04-24T09:02:50.999Z,100040.06
2023-04-24T09:05:19.463Z,100046.09
2023-04-24T09:07:56.987Z,100041.63
2023-04-24T09:10:31.974Z,100039.91
2023-04-24T09:13:02.592Z,100050.03
2023-04-24T09:15:35.885Z,100050.91
2023-04-24T09:18:10.009Z,100064.91
2023-04-24T09:21:14.834Z,100068.94
2023-04-24T09:23:42.392Z,100061.38
2023-04-24T09:26:17.836Z,100085.16
2023-04-24T09:28:45.295Z,100102.59
2023-04-24T09:31:25.865Z,100094.53
2023-04-24T09:33:59.776Z,100099.47
2023-04-24T09:36:44.836Z,100129.03
2023-04-24T09:39:13.313Z,100129.69
2023-04-24T09:41:55.818Z,100135.63
2023-04-24T09:44:24.424Z,100145.75
2023-04-24T09:47:05.819Z,100152.03
2023-04-24T09:49:37.034Z,100157.19
2023-04-24T09:52:16.903Z,100159.84
2023-04-24T09:55:00.843Z,100167.69
2023-04-24T09:57:33.832Z,100176.97
2023-04-24T10:00:01.015Z,100184.72
2023-04-24T10:02:33.942Z,100190.50
2023-04-24T10:05:08.011Z,100193.16
2023-04-24T10:07:41.895Z,100203.88
2023-04-24T10:10:15.897Z,100198.44
2023-04-24T10:12:50.855Z,100203.50
2023-04-24T10:15:38.912Z,100214.97
2023-04-24T10:18:13.908Z,100218.59
2023-04-24T10:20:48.844Z,100221.97
2023-04-24T10:23:16.363Z,100221.75
2023-04-24T10:25:49.803Z,100232.56
2023-04-24T10:28:17.356Z,100230.28
2023-04-24T10:30:51.007Z,100232.13
2023-04-24T10:33:18.719Z,100240.44
2023-04-24T10:35:56.773Z,100235.25
2023-04-24T10:38:33.851Z,100250.31
2023-04-24T10:41:24.656Z,100255.16
2023-04-24T10:44:17.813Z,100259.50
2023-04-24T10:46:46.631Z,100261.66
2023-04-24T10:49:19.870Z,100279.50
2023-04-24T10:51:48.418Z,100287.00
2023-04-24T10:54:42.807Z,100295.47
2023-04-24T10:57:30.817Z,100305.38
2023-04-24T11:00:23.938Z,100306.91
2023-04-24T11:03:01.000Z,100304.63
2023-04-24T11:06:02.854Z,100331.19
2023-04-24T11:08:52.828Z,100320.09
2023-04-24T11:11:28.884Z,100321.16
2023-04-24T11:14:04.914Z,100330.09
2023-04-24T11:17:08.806Z,100332.75
2023-04-24T11:19:41.874Z,100331.91
2023-04-24T11:22:18.273Z,100340.84
2023-04-24T11:24:54.089Z,100337.50
2023-04-24T11:27:22.590Z,100338.31
2023-04-24T11:30:05.056Z,100339.03
2023-04-24T11:32:34.927Z,100344.47
2023-04-24T11:35:11.819Z,100347.53
2023-04-24T11:38:07.911Z,100362.72
2023-04-24T11:40:39.114Z,100352.97
2023-04-24T11:43:14.892Z,100359.22
2023-04-24T11:45:55.976Z,100377.22
2023-04-24T11:48:23.864Z,100383.94
2023-04-24T11:50:57.897Z,100389.22
2023-04-24T11:53:30.915Z,100395.84
2023-04-24T11:55:57.707Z,100396.22
2023-04-24T11:58:30.926Z,100400.91
2023-04-24T12:01:02.478Z,100412.16
2023-04-24T12:03:36.079Z,100412.03
2023-04-24T12:06:09.120Z,100406.38
2023-04-24T12:08:42.837Z,100417.25
2023-04-24T12:11:09.929Z,100406.38
2023-04-24T12:13:43.838Z,100416.19
2023-04-24T12:16:17.240Z,100430.22
2023-04-24T12:18:51.923Z,100427.09
2023-04-24T12:21:29.910Z,100427.56
2023-04-24T12:23:57.051Z,100426.47
2023-04-24T12:26:30.967Z,100420.31
2023-04-24T12:29:04.439Z,100439.00
2023-04-24T12:31:39.923Z,100432.88
2023-04-24T12:34:25.935Z,100440.84
2023-04-24T12:36:53.318Z,100441.81
2023-04-24T12:39:21.504Z,100437.44
2023-04-24T12:42:12.951Z,100459.91
2023-04-24T12:44:39.801Z,100447.59
2023-04-24T12:47:12.971Z,100453.97
2023-04-24T12:49:40.694Z,100460.53
2023-04-24T12:52:13.886Z,100466.59
2023-04-24T12:54:46.876Z,100459.47
2023-04-24T12:57:13.819Z,100463.59
2023-04-24T12:59:46.935Z,100462.41
2023-04-24T13:02:14.062Z,100466.53
2023-04-24T13:04:46.984Z,100477.31
2023-04-24T13:07:15.197Z,100482.38
2023-04-24T13:09:46.005Z,100488.19
2023-04-24T13:12:19.924Z,100485.78
2023-04-24T13:14:47.512Z,100486.38
2023-04-24T13:17:22.089Z,100488.19
2023-04-24T13:19:58.881Z,100490.25
2023-04-24T13:22:26.179Z,100495.44
2023-04-24T13:24:59.893Z,100505.69
2023-04-24T13:27:26.665Z,100489.88
2023-04-24T13:29:53.412Z,100501.25
2023-04-24T13:32:26.949Z,100511.28
2023-04-24T13:34:54.309Z,100508.72
2023-04-24T13:37:27.961Z,100521.53
2023-04-24T13:39:54.839Z,100496.75
2023-04-24T13:42:28.028Z,100525.78
2023-04-24T13:44:55.364Z,100524.56
2023-04-24T13:47:28.982Z,100515.38
2023-04-24T13:49:55.752Z,100526.94
2023-04-24T13:52:28.924Z,100529.34
2023-04-24T13:54:56.819Z,100515.47
2023-04-24T13:57:23.707Z,100524.91
2023-04-24T13:59:56.878Z,100523.00
2023-04-24T14:02:23.771Z,100513.06
2023-04-24T14:04:57.026Z,100517.53
2023-04-24T14:07:26.971Z,100531.78
2023-04-24T14:09:59.993Z,100534.56
2023-04-24T14:12:27.127Z,100524.31
2023-04-24T14:15:01.017Z,100534.22
2023-04-24T14:17:34.081Z,100530.50
2023-04-24T14:20:07.949Z,100532.84
2023-04-24T14:22:34.673Z,100510.03
2023-04-24T14:25:07.965Z,100505.31
2023-04-24T14:27:36.094Z,100523.50
2023-04-24T14:30:10.767Z,100524.75
2023-04-24T14:32:40.338Z,100527.47
2023-04-24T14:35:08.289Z,100528.66
2023-04-24T14:37:41.928Z,100521.91
2023-04-24T14:40:32.000Z,100545.50
2023-04-24T14:43:05.951Z,100569.88
2023-04-24T14:45:32.943Z,100581.50
2023-04-24T14:48:06.069Z,100576.19
2023-04-24T14:50:32.922Z,100565.31
2023-04-24T14:53:05.947Z,100577.34
2023-04-24T14:55:33.773Z,100571.78
2023-04-24T14:58:06.981Z,100573.97
2023-04-24T15:00:39.954Z,100573.03
2023-04-24T15:03:07.112Z,100582.34
2023-04-24T15:05:40.295Z,100588.41
2023-04-24T15:08:07.281Z,100583.47
2023-04-24T15:10:41.106Z,100587.66
2023-04-24T15:13:14.039Z,100597.34
2023-04-24T15:15:48.150Z,100590.34
2023-04-24T15:18:21.505Z,100592.34
2023-04-24T15:20:54.941Z,100594.19
2023-04-24T15:23:21.797Z,100600.75
2023-04-24T15:25:54.991Z,100596.31
2023-04-24T15:28:22.957Z,100595.00
2023-04-24T15:30:55.941Z,100581.34
2023-04-24T15:33:22.739Z,100586.44
2023-04-24T15:35:57.017Z,100609.16
2023-04-24T15:38:23.917Z,100594.28
2023-04-24T15:40:57.083Z,100592.38
2023-04-24T15:43:30.450Z,100598.63
2023-04-24T15:52:31.122Z,100607.63
2023-04-24T15:55:19.047Z,100604.81
2023-04-24T15:57:52.034Z,100599.34
2023-04-24T16:00:19.398Z,100605.34
2023-04-24T16:02:53.078Z,100595.56
2023-04-24T16:05:26.165Z,100604.41
2023-04-24T16:07:59.995Z,100599.63
2023-04-24T16:10:33.037Z,100602.88
2023-04-24T16:13:09.055Z,100612.56
2023-04-24T16:15:39.190Z,100617.28
2023-04-24T16:18:06.405Z,100613.06
2023-04-24T16:20:39.985Z,100611.09
2023-04-24T16:23:06.825Z,100620.06
2023-04-24T16:25:40.304Z,100619.31
2023-04-24T16:28:07.193Z,100621.25
2023-04-24T16:30:40.008Z,100613.75
2023-04-24T16:33:09.347Z,100616.44
2023-04-24T16:35:43.041Z,100616.75
2023-04-24T16:38:17.394Z,100626.66
2023-04-24T16:40:51.060Z,100636.47
2023-04-24T16:43:18.191Z,100637.53
2023-04-24T16:45:45.666Z,100638.03
2023-04-24T16:48:19.094Z,100627.28
2023-04-24T16:50:46.728Z,100636.84
2023-04-24T16:53:19.996Z,100643.84
2023-04-24T16:55:53.411Z,100638.44
2023-04-24T16:58:27.010Z,100634.19
2023-04-24T17:01:00.176Z,100640.47
2023-04-24T17:03:33.231Z,100637.91
2023-04-24T17:06:00.824Z,100649.53
2023-04-24T17:08:34.055Z,100642.53
2023-04-24T17:11:00.918Z,100635.50
2023-04-24T17:13:34.087Z,100637.22
2023-04-24T17:16:07.096Z,100640.97
2023-04-24T17:18:40.060Z,100652.81
2023-04-24T17:21:13.061Z,100636.75
2023-04-24T17:23:39.874Z,100645.66
2023-04-24T17:26:13.069Z,100651.34
2023-04-24T17:28:46.296Z,100653.66
2023-04-24T17:31:13.295Z,100653.78
2023-04-24T17:33:47.122Z,100662.81
2023-04-24T17:36:20.115Z,100664.00
2023-04-24T17:38:47.072Z,100663.50
2023-04-24T17:41:23.013Z,100666.19
2023-04-24T17:43:50.704Z,100661.94
2023-04-24T17:46:24.155Z,100663.75
2023-04-24T18:05:36.095Z,100682.50
2023-04-24T18:08:10.243Z,100680.19
2023-04-24T18:10:37.230Z,100682.22
2023-04-24T18:13:11.484Z,100675.41
2023-04-24T18:15:42.247Z,100686.41
2023-04-24T18:18:17.097Z,100667.75
2023-04-24T18:20:50.176Z,100686.88
2023-04-24T18:23:16.922Z,100678.59
2023-04-24T18:25:50.066Z,100694.13
2023-04-24T18:28:16.830Z,100690.47
2023-04-24T18:30:50.310Z,100684.66
2023-04-24T18:33:17.179Z,100690.72
2023-04-24T18:35:50.273Z,100700.50
2023-04-24T18:38:17.411Z,100697.19
2023-04-24T18:40:51.449Z,100700.69
2023-04-24T18:43:18.602Z,100694.25
2023-04-24T18:45:53.242Z,100693.63
2023-04-24T18:48:20.218Z,100692.03
2023-04-24T18:50:47.088Z,100703.28
2023-04-24T18:53:22.085Z,100700.22
2023-04-24T18:55:49.978Z,100710.34
2023-04-24T18:58:23.144Z,100708.75
2023-04-24T19:00:50.279Z,100705.88
2023-04-24T19:03:24.236Z,100724.66
2023-04-24T19:05:57.397Z,100723.19
2023-04-24T19:08:31.153Z,100721.72
2023-04-24T19:10:58.041Z,100717.81
2023-04-24T19:13:31.129Z,100730.13
2023-04-24T19:15:58.104Z,100732.25
2023-04-24T19:18:33.117Z,100733.75
2023-04-24T19:21:08.649Z,100733.94
2023-04-24T19:23:39.756Z,100730.78
2023-04-24T19:26:13.141Z,100754.44
2023-04-24T19:28:40.111Z,100733.78
2023-04-24T19:31:14.119Z,100759.03
2023-04-24T19:33:41.173Z,100755.53
2023-04-24T19:36:15.194Z,100725.94
2023-04-24T19:38:42.493Z,100761.03
2023-04-24T19:41:09.220Z,100743.13
2023-04-24T19:43:42.123Z,100747.44
2023-04-24T19:46:15.991Z,100746.28
2023-04-24T19:48:51.046Z,100757.00
2023-04-24T19:51:25.191Z,100750.09
2023-04-24T19:53:59.127Z,100756.38
2023-04-24T19:56:25.896Z,100751.81
2023-04-24T19:58:59.262Z,100745.97
2023-04-24T20:01:26.198Z,100750.31
2023-04-24T20:04:00.361Z,100756.56
2023-04-24T20:06:34.228Z,100757.44
2023-04-24T20:09:07.193Z,100758.59
2023-04-24T20:11:34.360Z,100754.13
2023-04-24T20:14:10.160Z,100750.63
2023-04-24T20:17:06.251Z,100754.13
2023-04-24T20:19:39.141Z,100749.06
2023-04-24T20:22:06.140Z,100756.91
2023-04-24T20:24:40.130Z,100752.53
2023-04-24T20:27:07.218Z,100747.22
2023-04-24T20:29:40.152Z,100745.66
2023-04-24T20:32:07.251Z,100734.72
2023-04-24T20:34:41.196Z,100739.94
2023-04-24T20:37:14.203Z,100751.91
2023-04-24T20:39:41.132Z,100718.59
2023-04-24T20:42:14.153Z,100729.09
2023-04-24T20:44:41.899Z,100742.47
2023-04-24T20:47:15.201Z,100725.28
2023-04-24T20:49:42.444Z,100746.59
2023-04-24T20:52:09.337Z,100745.75
2023-04-24T20:54:43.211Z,100740.56
2023-04-24T20:57:17.264Z,100748.41
2023-04-24T20:59:44.065Z,100751.06
2023-04-24T21:02:19.303Z,100747.78
2023-04-24T21:04:53.232Z,100729.50
2023-04-24T21:07:26.182Z,100746.81
2023-04-24T21:09:53.233Z,100747.13
2023-04-24T21:12:27.162Z,100745.75
2023-04-24T21:15:00.175Z,100759.94
2023-04-24T21:17:27.278Z,100755.81
2023-04-24T21:20:03.287Z,100748.16
2023-04-24T21:22:30.638Z,100748.25
2023-04-24T21:25:04.326Z,100727.53
2023-04-24T21:27:38.209Z,100746.44
2023-04-24T21:30:13.348Z,100732.41
2023-04-24T21:32:40.900Z,100743.00
2023-04-24T21:35:15.131Z,100729.72
2023-04-24T21:37:49.227Z,100729.84
2023-04-24T21:40:16.537Z,100741.19
2023-04-24T21:42:50.233Z,100737.03
2023-04-24T21:45:19.674Z,100748.13
2023-04-24T21:47:53.337Z,100759.38
2023-04-24T21:50:20.386Z,100756.28
2023-04-24T21:52:54.204Z,100767.53
2023-04-24T21:55:21.865Z,100741.09
2023-04-24T21:57:55.181Z,100770.28
2023-04-24T22:00:29.349Z,100738.66
2023-04-24T22:03:02.342Z,100767.72
2023-04-24T22:05:49.209Z,100764.31
2023-04-24T22:08:23.197Z,100765.09
2023-04-24T22:10:58.226Z,100750.53
2023-04-24T22:13:32.227Z,100753.28
2023-04-24T22:15:59.180Z,100765.09
2023-04-24T22:18:46.178Z,100757.53
2023-04-24T22:21:20.161Z,100778.31
2023-04-24T22:23:54.167Z,100761.03
2023-04-24T22:26:21.214Z,100775.88
2023-04-24T22:28:48.427Z,100781.25
2023-04-24T22:31:22.239Z,100769.06
2023-04-24T22:33:56.210Z,100777.13
2023-04-24T22:36:23.002Z,100774.59
2023-04-24T22:38:56.167Z,100775.81
2023-04-24T22:41:29.173Z,100787.25
2023-04-24T22:43:56.041Z,100779.41
2023-04-24T22:46:31.200Z,100782.91
2023-04-24T22:48:58.640Z,100776.75
2023-04-24T22:51:33.158Z,100777.88
2023-04-24T22:54:02.532Z,100781.94
2023-04-24T22:56:36.146Z,100782.69
2023-04-24T22:59:04.491Z,100789.72
2023-04-24T23:01:38.209Z,100788.84
2023-04-24T23:04:25.357Z,100781.78
2023-04-24T23:06:58.154Z,100796.59
2023-04-24T23:09:24.868Z,100797.44
2023-04-24T23:11:58.233Z,100798.22
2023-04-24T23:14:25.210Z,100798.31
2023-04-24T23:16:58.271Z,100796.59
2023-04-24T23:19:25.306Z,100805.28
2023-04-24T23:21:58.246Z,100805.28
2023-04-24T23:24:31.242Z,100814.09
2023-04-24T23:26:58.039Z,100817.59
2023-04-24T23:29:33.164Z,100815.78
2023-04-24T23:32:02.073Z,100816.84
2023-04-24T23:34:35.216Z,100820.53
2023-04-24T23:37:01.968Z,100819.00
2023-04-24T23:39:35.336Z,100815.81
2023-04-24T23:42:03.117Z,100816.88
2023-04-24T23:44:37.179Z,100820.56
2023-04-24T23:47:03.952Z,100823.41
2023-04-24T23:49:37.216Z,100818.88
2023-04-24T23:52:04.573Z,100817.25
2023-04-24T23:54:38.162Z,100817.34
2023-04-24T23:57:04.843Z,100807.91
2023-04-24T23:59:38.257Z,100816.16
